Airport View

Enter AWOS ICAO identifier for current METAR.

ex. KFNL

KSVN 011156Z AUTO 27003KT 10SM CLR 13/12 A3002 RMK AO2 SLP169 T01320119 10139 20116 53002 $

1 Oct 2020 12:43

Other Area AWOS: KSAV - KLHW - KHXD - KARW

TAF KSVN 011200Z 0112/0218 28009KT 9999 SKC QNH2990INS BECMG 0122/0123 32009KT 9999 SKC QNH2999INS TX27/0120Z TN13/0208Z